sensor_id;sensor_type;location;lat;lon;timestamp;pressure;altitude;pressure_sealevel;temperature;humidity
20628;BME280;10473;42.734;24.258;2023-02-02T00:01:19;91772.53;;;1.95;70.70
20628;BME280;10473;42.734;24.258;2023-02-02T00:03:47;91778.28;;;2.08;70.50
20628;BME280;10473;42.734;24.258;2023-02-02T00:06:16;91766.13;;;1.83;71.55
20628;BME280;10473;42.734;24.258;2023-02-02T00:08:44;91769.75;;;2.00;71.18
20628;BME280;10473;42.734;24.258;2023-02-02T00:11:13;91769.59;;;1.96;73.02
20628;BME280;10473;42.734;24.258;2023-02-02T00:13:41;91773.41;;;1.98;73.19
20628;BME280;10473;42.734;24.258;2023-02-02T00:16:34;91774.72;;;1.84;74.80
20628;BME280;10473;42.734;24.258;2023-02-02T00:19:04;91782.16;;;2.03;75.34
20628;BME280;10473;42.734;24.258;2023-02-02T00:21:32;91780.13;;;1.79;76.75
20628;BME280;10473;42.734;24.258;2023-02-02T00:24:00;91781.59;;;1.97;76.66
20628;BME280;10473;42.734;24.258;2023-02-02T00:26:29;91784.50;;;1.96;77.18
20628;BME280;10473;42.734;24.258;2023-02-02T00:28:58;91790.00;;;2.03;77.21
20628;BME280;10473;42.734;24.258;2023-02-02T00:31:26;91782.75;;;2.08;76.88
20628;BME280;10473;42.734;24.258;2023-02-02T00:33:54;91777.78;;;2.15;77.61
20628;BME280;10473;42.734;24.258;2023-02-02T00:36:22;91790.34;;;2.22;78.45
20628;BME280;10473;42.734;24.258;2023-02-02T00:38:53;91776.66;;;2.25;78.08
20628;BME280;10473;42.734;24.258;2023-02-02T00:41:20;91779.81;;;2.10;78.56
20628;BME280;10473;42.734;24.258;2023-02-02T00:43:50;91778.56;;;2.16;78.94
20628;BME280;10473;42.734;24.258;2023-02-02T00:46:32;91777.81;;;1.77;79.86
20628;BME280;10473;42.734;24.258;2023-02-02T00:49:00;91779.53;;;2.03;79.42
20628;BME280;10473;42.734;24.258;2023-02-02T00:51:28;91773.88;;;2.01;79.08
20628;BME280;10473;42.734;24.258;2023-02-02T00:53:55;91767.69;;;2.05;78.17
20628;BME280;10473;42.734;24.258;2023-02-02T00:56:23;91773.69;;;2.06;77.23
20628;BME280;10473;42.734;24.258;2023-02-02T00:58:54;91770.25;;;2.13;77.40
20628;BME280;10473;42.734;24.258;2023-02-02T01:01:22;91769.13;;;1.65;78.18
20628;BME280;10473;42.734;24.258;2023-02-02T01:03:50;91761.97;;;1.83;77.42
20628;BME280;10473;42.734;24.258;2023-02-02T01:06:21;91764.47;;;1.79;76.75
20628;BME280;10473;42.734;24.258;2023-02-02T01:08:48;91766.13;;;1.83;76.14
20628;BME280;10473;42.734;24.258;2023-02-02T01:11:16;91769.91;;;1.66;76.06
20628;BME280;10473;42.734;24.258;2023-02-02T01:13:44;91762.25;;;1.61;76.16
20628;BME280;10473;42.734;24.258;2023-02-02T01:16:13;91759.03;;;1.55;76.09
20628;BME280;10473;42.734;24.258;2023-02-02T01:18:41;91755.75;;;1.67;75.73
20628;BME280;10473;42.734;24.258;2023-02-02T01:21:10;91742.94;;;1.44;75.14
20628;BME280;10473;42.734;24.258;2023-02-02T01:23:39;91753.22;;;1.49;75.53
20628;BME280;10473;42.734;24.258;2023-02-02T01:26:09;91734.75;;;1.17;76.01
20628;BME280;10473;42.734;24.258;2023-02-02T01:28:37;91761.59;;;1.26;76.00
20628;BME280;10473;42.734;24.258;2023-02-02T01:31:07;91760.41;;;1.07;77.81
20628;BME280;10473;42.734;24.258;2023-02-02T01:33:36;91760.25;;;1.12;77.04
20628;BME280;10473;42.734;24.258;2023-02-02T01:36:07;91761.78;;;1.13;76.30
20628;BME280;10473;42.734;24.258;2023-02-02T01:38:35;91755.50;;;1.05;76.83
20628;BME280;10473;42.734;24.258;2023-02-02T01:41:03;91758.44;;;0.95;76.32
20628;BME280;10473;42.734;24.258;2023-02-02T01:43:51;91751.03;;;1.05;76.01
20628;BME280;10473;42.734;24.258;2023-02-02T01:46:22;91750.81;;;0.82;76.27
20628;BME280;10473;42.734;24.258;2023-02-02T01:48:55;91754.03;;;0.78;76.37
20628;BME280;10473;42.734;24.258;2023-02-02T01:51:28;91749.25;;;0.80;76.82
20628;BME280;10473;42.734;24.258;2023-02-02T01:53:57;91731.81;;;0.73;77.49
20628;BME280;10473;42.734;24.258;2023-02-02T01:56:32;91735.94;;;0.73;77.62
20628;BME280;10473;42.734;24.258;2023-02-02T01:59:01;91737.94;;;0.77;77.38
20628;BME280;10473;42.734;24.258;2023-02-02T02:01:30;91721.22;;;0.69;77.40
20628;BME280;10473;42.734;24.258;2023-02-02T02:03:59;91732.88;;;0.63;77.41
20628;BME280;10473;42.734;24.258;2023-02-02T02:06:28;91734.25;;;0.77;76.46
20628;BME280;10473;42.734;24.258;2023-02-02T02:08:58;91730.72;;;0.73;76.20
20628;BME280;10473;42.734;24.258;2023-02-02T02:11:29;91742.06;;;0.60;77.60
20628;BME280;10473;42.734;24.258;2023-02-02T02:13:59;91739.75;;;0.59;77.63
20628;BME280;10473;42.734;24.258;2023-02-02T02:16:54;91730.28;;;0.54;77.91
20628;BME280;10473;42.734;24.258;2023-02-02T02:19:58;91733.19;;;0.44;77.89
20628;BME280;10473;42.734;24.258;2023-02-02T02:26:27;91733.06;;;0.32;77.95
20628;BME280;10473;42.734;24.258;2023-02-02T02:29:26;91743.47;;;0.49;77.10
20628;BME280;10473;42.734;24.258;2023-02-02T02:32:20;91728.91;;;0.40;77.55
20628;BME280;10473;42.734;24.258;2023-02-02T02:34:55;91740.56;;;0.51;76.66
20628;BME280;10473;42.734;24.258;2023-02-02T02:37:33;91710.53;;;0.45;77.87
20628;BME280;10473;42.734;24.258;2023-02-02T02:40:10;91725.69;;;0.34;77.72
20628;BME280;10473;42.734;24.258;2023-02-02T02:42:42;91731.66;;;0.52;77.32
20628;BME280;10473;42.734;24.258;2023-02-02T02:45:12;91747.28;;;0.52;77.41
20628;BME280;10473;42.734;24.258;2023-02-02T02:47:42;91741.63;;;0.41;77.90
20628;BME280;10473;42.734;24.258;2023-02-02T02:50:10;91746.19;;;0.61;77.12
20628;BME280;10473;42.734;24.258;2023-02-02T02:52:39;91729.50;;;0.54;76.86
20628;BME280;10473;42.734;24.258;2023-02-02T02:55:09;91738.41;;;0.36;77.15
20628;BME280;10473;42.734;24.258;2023-02-02T02:57:46;91742.25;;;0.38;78.07
20628;BME280;10473;42.734;24.258;2023-02-02T03:00:30;91744.25;;;0.50;77.18
20628;BME280;10473;42.734;24.258;2023-02-02T03:03:07;91745.75;;;0.51;77.06
20628;BME280;10473;42.734;24.258;2023-02-02T03:05:48;91740.56;;;0.43;76.99
20628;BME280;10473;42.734;24.258;2023-02-02T03:08:24;91742.84;;;0.61;77.21
20628;BME280;10473;42.734;24.258;2023-02-02T03:10:54;91745.00;;;0.33;76.60
20628;BME280;10473;42.734;24.258;2023-02-02T03:13:25;91742.25;;;0.38;76.41
20628;BME280;10473;42.734;24.258;2023-02-02T03:15:53;91732.28;;;0.32;77.02
20628;BME280;10473;42.734;24.258;2023-02-02T03:18:25;91740.41;;;0.56;76.77
20628;BME280;10473;42.734;24.258;2023-02-02T03:20:54;91736.09;;;0.34;76.48
20628;BME280;10473;42.734;24.258;2023-02-02T03:23:21;91749.91;;;0.52;76.47
20628;BME280;10473;42.734;24.258;2023-02-02T03:25:49;91745.75;;;0.25;76.87
20628;BME280;10473;42.734;24.258;2023-02-02T03:28:17;91740.09;;;0.40;77.16
20628;BME280;10473;42.734;24.258;2023-02-02T03:30:46;91737.81;;;0.47;76.16
20628;BME280;10473;42.734;24.258;2023-02-02T03:33:14;91746.38;;;0.39;77.38
20628;BME280;10473;42.734;24.258;2023-02-02T03:35:45;91735.81;;;0.44;76.85
20628;BME280;10473;42.734;24.258;2023-02-02T03:38:12;91743.00;;;0.47;76.38
20628;BME280;10473;42.734;24.258;2023-02-02T03:40:40;91735.94;;;0.48;76.61
20628;BME280;10473;42.734;24.258;2023-02-02T03:43:08;91736.56;;;0.45;76.67
20628;BME280;10473;42.734;24.258;2023-02-02T03:45:36;91740.56;;;0.51;76.49
20628;BME280;10473;42.734;24.258;2023-02-02T03:48:06;91743.75;;;0.56;76.12
20628;BME280;10473;42.734;24.258;2023-02-02T03:50:33;91742.69;;;0.57;75.71
20628;BME280;10473;42.734;24.258;2023-02-02T03:53:02;91739.78;;;0.50;75.72
20628;BME280;10473;42.734;24.258;2023-02-02T03:55:30;91740.41;;;0.47;75.43
20628;BME280;10473;42.734;24.258;2023-02-02T03:57:58;91728.59;;;0.16;75.89
20628;BME280;10473;42.734;24.258;2023-02-02T04:00:25;91740.72;;;0.38;75.79
20628;BME280;10473;42.734;24.258;2023-02-02T04:02:53;91736.72;;;0.31;76.27
20628;BME280;10473;42.734;24.258;2023-02-02T04:05:22;91735.19;;;0.39;75.76
20628;BME280;10473;42.734;24.258;2023-02-02T04:07:49;91742.41;;;0.25;76.03
20628;BME280;10473;42.734;24.258;2023-02-02T04:10:19;91737.78;;;0.22;76.05
20628;BME280;10473;42.734;24.258;2023-02-02T04:12:47;91742.06;;;0.09;76.12
20628;BME280;10473;42.734;24.258;2023-02-02T04:15:14;91738.56;;;0.22;76.02
20628;BME280;10473;42.734;24.258;2023-02-02T04:17:42;91734.44;;;0.30;75.55
20628;BME280;10473;42.734;24.258;2023-02-02T04:20:10;91745.91;;;0.20;75.84
20628;BME280;10473;42.734;24.258;2023-02-02T04:22:38;91751.91;;;0.13;75.50
20628;BME280;10473;42.734;24.258;2023-02-02T04:25:06;91747.44;;;0.21;75.50
20628;BME280;10473;42.734;24.258;2023-02-02T04:27:36;91754.03;;;0.28;75.20
20628;BME280;10473;42.734;24.258;2023-02-02T04:30:04;91745.91;;;0.20;74.45
20628;BME280;10473;42.734;24.258;2023-02-02T04:32:32;91753.72;;;0.29;74.63
20628;BME280;10473;42.734;24.258;2023-02-02T04:35:00;91744.53;;;0.14;75.38
20628;BME280;10473;42.734;24.258;2023-02-02T04:37:29;91752.34;;;0.31;75.24
20628;BME280;10473;42.734;24.258;2023-02-02T04:39:57;91759.25;;;0.28;74.65
20628;BME280;10473;42.734;24.258;2023-02-02T04:42:25;91747.13;;;0.14;75.21
20628;BME280;10473;42.734;24.258;2023-02-02T04:44:54;91766.16;;;0.23;74.54
20628;BME280;10473;42.734;24.258;2023-02-02T04:47:21;91773.47;;;0.21;74.43
20628;BME280;10473;42.734;24.258;2023-02-02T04:49:49;91778.09;;;0.08;75.37
20628;BME280;10473;42.734;24.258;2023-02-02T04:52:17;91775.16;;;0.09;74.78
20628;BME280;10473;42.734;24.258;2023-02-02T04:54:44;91775.16;;;0.09;75.23
20628;BME280;10473;42.734;24.258;2023-02-02T04:57:12;91775.94;;;0.09;74.42
20628;BME280;10473;42.734;24.258;2023-02-02T04:59:40;91783.25;;;-0.10;75.39
20628;BME280;10473;42.734;24.258;2023-02-02T05:02:09;91794.91;;;0.01;74.43
20628;BME280;10473;42.734;24.258;2023-02-02T05:04:36;91790.13;;;-0.14;75.22
20628;BME280;10473;42.734;24.258;2023-02-02T05:07:04;91791.63;;;-0.13;74.70
20628;BME280;10473;42.734;24.258;2023-02-02T05:09:32;91792.53;;;-0.34;76.07
20628;BME280;10473;42.734;24.258;2023-02-02T05:11:59;91805.00;;;-0.06;75.13
20628;BME280;10473;42.734;24.258;2023-02-02T05:14:27;91801.47;;;-0.10;75.81
20628;BME280;10473;42.734;24.258;2023-02-02T05:16:55;91796.97;;;-0.18;75.96
20628;BME280;10473;42.734;24.258;2023-02-02T05:19:24;91795.16;;;-0.26;76.11
20628;BME280;10473;42.734;24.258;2023-02-02T05:21:52;91801.00;;;-0.12;75.66
20628;BME280;10473;42.734;24.258;2023-02-02T05:24:19;91800.34;;;-0.26;76.36
20628;BME280;10473;42.734;24.258;2023-02-02T05:26:47;91794.19;;;-0.30;76.99
20628;BME280;10473;42.734;24.258;2023-02-02T05:29:15;91795.16;;;-0.26;77.00
20628;BME280;10473;42.734;24.258;2023-02-02T05:31:43;91788.28;;;-0.22;76.26
20628;BME280;10473;42.734;24.258;2023-02-02T05:34:10;91789.78;;;-0.29;76.05
20628;BME280;10473;42.734;24.258;2023-02-02T05:36:40;91789.13;;;-0.35;76.46
20628;BME280;10473;42.734;24.258;2023-02-02T05:39:08;91800.94;;;-0.29;76.04
20628;BME280;10473;42.734;24.258;2023-02-02T05:41:36;91797.72;;;-0.34;76.40
20628;BME280;10473;42.734;24.258;2023-02-02T05:44:06;91793.16;;;-0.20;76.25
20628;BME280;10473;42.734;24.258;2023-02-02T05:46:33;91805.56;;;-0.26;75.92
20628;BME280;10473;42.734;24.258;2023-02-02T05:49:01;91806.66;;;-0.18;76.24
20628;BME280;10473;42.734;24.258;2023-02-02T05:51:32;91812.16;;;-0.11;76.15
20628;BME280;10473;42.734;24.258;2023-02-02T05:54:04;91808.50;;;-0.10;76.81
20628;BME280;10473;42.734;24.258;2023-02-02T05:56:32;91812.84;;;0.11;76.24
20628;BME280;10473;42.734;24.258;2023-02-02T05:59:00;91804.28;;;0.19;76.81
20628;BME280;10473;42.734;24.258;2023-02-02T06:01:30;91807.19;;;0.26;76.41
20628;BME280;10473;42.734;24.258;2023-02-02T06:03:58;91823.50;;;0.57;75.52
20628;BME280;10473;42.734;24.258;2023-02-02T06:06:26;91833.91;;;0.74;75.19
20628;BME280;10473;42.734;24.258;2023-02-02T06:08:54;91836.97;;;0.93;74.76
20628;BME280;10473;42.734;24.258;2023-02-02T06:11:23;91831.72;;;1.27;74.68
20628;BME280;10473;42.734;24.258;2023-02-02T06:13:50;91828.72;;;1.63;74.09
20628;BME280;10473;42.734;24.258;2023-02-02T06:16:18;91842.16;;;1.91;73.44
20628;BME280;10473;42.734;24.258;2023-02-02T06:18:47;91840.78;;;2.22;72.00
20628;BME280;10473;42.734;24.258;2023-02-02T06:21:15;91852.94;;;2.67;70.68
20628;BME280;10473;42.734;24.258;2023-02-02T06:23:45;91853.94;;;2.84;69.87
20628;BME280;10473;42.734;24.258;2023-02-02T06:26:13;91850.34;;;3.09;69.67
20628;BME280;10473;42.734;24.258;2023-02-02T06:28:46;91860.16;;;3.12;68.13
20628;BME280;10473;42.734;24.258;2023-02-02T06:31:14;91850.50;;;3.24;67.18
20628;BME280;10473;42.734;24.258;2023-02-02T06:33:44;91822.59;;;2.96;66.43
20628;BME280;10473;42.734;24.258;2023-02-02T06:36:12;91844.53;;;3.03;67.04
20628;BME280;10473;42.734;24.258;2023-02-02T06:38:39;91848.06;;;3.07;66.81
20628;BME280;10473;42.734;24.258;2023-02-02T06:41:07;91859.16;;;3.25;67.58
20628;BME280;10473;42.734;24.258;2023-02-02T06:43:35;91861.47;;;3.38;65.65
20628;BME280;10473;42.734;24.258;2023-02-02T06:46:04;91855.81;;;3.36;65.48
20628;BME280;10473;42.734;24.258;2023-02-02T06:48:32;91858.56;;;3.52;66.07
20628;BME280;10473;42.734;24.258;2023-02-02T06:51:01;91849.91;;;3.72;65.89
20628;BME280;10473;42.734;24.258;2023-02-02T06:53:31;91852.09;;;3.82;65.16
20628;BME280;10473;42.734;24.258;2023-02-02T06:56:00;91854.66;;;3.90;64.15
20628;BME280;10473;42.734;24.258;2023-02-02T06:58:29;91851.50;;;3.97;63.57
20628;BME280;10473;42.734;24.258;2023-02-02T07:01:00;91863.75;;;4.05;64.14
20628;BME280;10473;42.734;24.258;2023-02-02T07:03:31;91853.13;;;3.89;63.81
20628;BME280;10473;42.734;24.258;2023-02-02T07:06:09;91847.31;;;3.84;64.58
20628;BME280;10473;42.734;24.258;2023-02-02T07:08:37;91855.41;;;3.79;63.77
20628;BME280;10473;42.734;24.258;2023-02-02T07:11:05;91867.88;;;3.94;63.73
20628;BME280;10473;42.734;24.258;2023-02-02T07:13:33;91858.03;;;3.91;64.17
20628;BME280;10473;42.734;24.258;2023-02-02T07:16:02;91855.66;;;4.10;64.00
20628;BME280;10473;42.734;24.258;2023-02-02T07:18:32;91846.47;;;4.16;60.99
20628;BME280;10473;42.734;24.258;2023-02-02T07:21:02;91872.47;;;4.21;62.43
20628;BME280;10473;42.734;24.258;2023-02-02T07:23:31;91863.66;;;4.37;61.76
20628;BME280;10473;42.734;24.258;2023-02-02T07:26:01;91871.94;;;4.27;62.35
20628;BME280;10473;42.734;24.258;2023-02-02T07:28:29;91871.63;;;4.41;61.73
20628;BME280;10473;42.734;24.258;2023-02-02T07:30:58;91870.34;;;4.47;61.82
20628;BME280;10473;42.734;24.258;2023-02-02T07:33:26;91874.16;;;4.61;62.35
20628;BME280;10473;42.734;24.258;2023-02-02T07:35:57;91870.63;;;4.81;60.65
20628;BME280;10473;42.734;24.258;2023-02-02T07:38:25;91860.22;;;5.36;61.04
20628;BME280;10473;42.734;24.258;2023-02-02T07:40:52;91871.69;;;5.71;59.77
20628;BME280;10473;42.734;24.258;2023-02-02T07:43:20;91866.03;;;6.12;57.70
20628;BME280;10473;42.734;24.258;2023-02-02T07:45:48;91870.69;;;6.81;55.73
20628;BME280;10473;42.734;24.258;2023-02-02T07:48:15;91858.06;;;7.05;53.91
20628;BME280;10473;42.734;24.258;2023-02-02T07:50:43;91862.19;;;7.60;52.63
20628;BME280;10473;42.734;24.258;2023-02-02T07:53:12;91862.84;;;8.14;50.60
20628;BME280;10473;42.734;24.258;2023-02-02T07:55:40;91866.16;;;8.75;50.42
20628;BME280;10473;42.734;24.258;2023-02-02T07:58:07;91863.31;;;9.13;49.24
20628;BME280;10473;42.734;24.258;2023-02-02T08:00:35;91843.13;;;9.57;47.97
20628;BME280;10473;42.734;24.258;2023-02-02T08:03:03;91851.78;;;9.24;46.63
20628;BME280;10473;42.734;24.258;2023-02-02T08:05:30;91855.19;;;9.25;46.71
20628;BME280;10473;42.734;24.258;2023-02-02T08:07:59;91847.84;;;9.41;47.22
20628;BME280;10473;42.734;24.258;2023-02-02T08:10:28;91854.84;;;9.56;46.57
20628;BME280;10473;42.734;24.258;2023-02-02T08:12:56;91846.94;;;9.59;46.41
20628;BME280;10473;42.734;24.258;2023-02-02T08:15:24;91852.69;;;9.98;45.43
20628;BME280;10473;42.734;24.258;2023-02-02T08:17:51;91851.19;;;9.38;45.83
20628;BME280;10473;42.734;24.258;2023-02-02T08:20:19;91839.84;;;10.00;45.65
20628;BME280;10473;42.734;24.258;2023-02-02T08:22:47;91851.28;;;9.74;45.21
20628;BME280;10473;42.734;24.258;2023-02-02T08:25:14;91864.59;;;10.51;44.91
20628;BME280;10473;42.734;24.258;2023-02-02T08:27:43;91854.56;;;10.70;43.66
20628;BME280;10473;42.734;24.258;2023-02-02T08:30:12;91864.88;;;10.82;42.53
20628;BME280;10473;42.734;24.258;2023-02-02T08:32:39;91842.97;;;10.89;42.08
20628;BME280;10473;42.734;24.258;2023-02-02T08:35:07;91857.94;;;11.18;41.12
20628;BME280;10473;42.734;24.258;2023-02-02T08:37:35;91853.06;;;11.23;40.83
20628;BME280;10473;42.734;24.258;2023-02-02T08:40:04;91851.88;;;11.78;40.60
20628;BME280;10473;42.734;24.258;2023-02-02T08:42:32;91847.03;;;12.05;39.41
20628;BME280;10473;42.734;24.258;2023-02-02T08:45:01;91844.47;;;12.36;38.19
20628;BME280;10473;42.734;24.258;2023-02-02T08:47:29;91851.34;;;12.51;37.33
20628;BME280;10473;42.734;24.258;2023-02-02T08:49:57;91844.16;;;12.94;37.47
20628;BME280;10473;42.734;24.258;2023-02-02T08:52:24;91840.72;;;12.86;37.73
20628;BME280;10473;42.734;24.258;2023-02-02T08:54:52;91837.66;;;12.60;37.88
20628;BME280;10473;42.734;24.258;2023-02-02T08:57:21;91842.97;;;12.70;37.37
20628;BME280;10473;42.734;24.258;2023-02-02T08:59:49;91837.56;;;12.18;38.25
20628;BME280;10473;42.734;24.258;2023-02-02T09:02:18;91846.41;;;11.54;38.54
20628;BME280;10473;42.734;24.258;2023-02-02T09:04:45;91851.41;;;11.05;39.02
20628;BME280;10473;42.734;24.258;2023-02-02T09:07:13;91848.75;;;10.54;40.17
20628;BME280;10473;42.734;24.258;2023-02-02T09:09:41;91860.16;;;9.89;41.36
20628;BME280;10473;42.734;24.258;2023-02-02T09:12:09;91852.88;;;9.20;42.80
20628;BME280;10473;42.734;24.258;2023-02-02T09:14:37;91850.03;;;9.06;43.20
20628;BME280;10473;42.734;24.258;2023-02-02T09:17:06;91850.47;;;10.03;43.09
20628;BME280;10473;42.734;24.258;2023-02-02T09:19:35;91846.50;;;10.60;41.35
20628;BME280;10473;42.734;24.258;2023-02-02T09:22:02;91833.63;;;11.09;39.47
20628;BME280;10473;42.734;24.258;2023-02-02T09:24:30;91836.53;;;12.61;39.19
20628;BME280;10473;42.734;24.258;2023-02-02T09:26:58;91840.63;;;13.74;35.59
20628;BME280;10473;42.734;24.258;2023-02-02T09:29:25;91836.22;;;14.29;35.14
20628;BME280;10473;42.734;24.258;2023-02-02T09:31:53;91830.78;;;14.53;34.14
20628;BME280;10473;42.734;24.258;2023-02-02T09:34:21;91833.94;;;14.89;33.21
20628;BME280;10473;42.734;24.258;2023-02-02T09:36:50;91832.28;;;14.54;33.80
20628;BME280;10473;42.734;24.258;2023-02-02T09:39:19;91839.59;;;14.40;34.59
20628;BME280;10473;42.734;24.258;2023-02-02T09:42:08;91801.56;;;13.29;33.81
20628;BME280;10473;42.734;24.258;2023-02-02T09:45:01;91822.50;;;13.09;35.24
20628;BME280;10473;42.734;24.258;2023-02-02T09:47:50;91818.66;;;13.38;35.00
20628;BME280;10473;42.734;24.258;2023-02-02T09:50:25;91812.63;;;12.85;36.15
20628;BME280;10473;42.734;24.258;2023-02-02T09:52:58;91793.56;;;12.10;36.72
20628;BME280;10473;42.734;24.258;2023-02-02T09:55:32;91804.88;;;11.93;38.04
20628;BME280;10473;42.734;24.258;2023-02-02T09:58:07;91795.53;;;11.38;38.16
20628;BME280;10473;42.734;24.258;2023-02-02T10:00:40;91793.59;;;11.31;39.14
20628;BME280;10473;42.734;24.258;2023-02-02T10:03:14;91782.41;;;10.91;40.11
20628;BME280;10473;42.734;24.258;2023-02-02T10:05:47;91775.56;;;10.86;39.80
20628;BME280;10473;42.734;24.258;2023-02-02T10:08:25;91783.03;;;10.74;39.80
20628;BME280;10473;42.734;24.258;2023-02-02T10:10:55;91763.84;;;10.37;40.58
20628;BME280;10473;42.734;24.258;2023-02-02T10:13:26;91758.00;;;9.81;42.40
20628;BME280;10473;42.734;24.258;2023-02-02T10:16:03;91753.50;;;9.48;42.22
20628;BME280;10473;42.734;24.258;2023-02-02T10:18:39;91746.38;;;8.90;44.37
20628;BME280;10473;42.734;24.258;2023-02-02T10:21:12;91730.41;;;8.53;45.38
20628;BME280;10473;42.734;24.258;2023-02-02T10:23:44;91734.47;;;8.47;46.01
20628;BME280;10473;42.734;24.258;2023-02-02T10:26:18;91724.94;;;8.17;46.51
20628;BME280;10473;42.734;24.258;2023-02-02T10:29:04;91734.50;;;8.25;47.32
20628;BME280;10473;42.734;24.258;2023-02-02T10:31:40;91735.84;;;8.38;47.11
20628;BME280;10473;42.734;24.258;2023-02-02T10:34:20;91733.56;;;8.62;46.50
20628;BME280;10473;42.734;24.258;2023-02-02T10:36:58;91719.56;;;9.21;45.83
20628;BME280;10473;42.734;24.258;2023-02-02T10:39:40;91732.66;;;10.67;42.90
20628;BME280;10473;42.734;24.258;2023-02-02T10:42:16;91731.94;;;11.48;40.53
20628;BME280;10473;42.734;24.258;2023-02-02T10:44:49;91714.72;;;11.11;40.04
20628;BME280;10473;42.734;24.258;2023-02-02T10:47:23;91710.81;;;11.83;40.40
20628;BME280;10473;42.734;24.258;2023-02-02T10:50:01;91708.59;;;12.24;37.87
20628;BME280;10473;42.734;24.258;2023-02-02T10:52:32;91703.69;;;11.02;39.30
20628;BME280;10473;42.734;24.258;2023-02-02T10:55:05;91708.41;;;10.11;41.39
20628;BME280;10473;42.734;24.258;2023-02-02T10:57:48;91707.31;;;9.06;42.80
20628;BME280;10473;42.734;24.258;2023-02-02T11:00:21;91693.19;;;9.24;43.83
20628;BME280;10473;42.734;24.258;2023-02-02T11:02:51;91694.06;;;9.35;43.81
20628;BME280;10473;42.734;24.258;2023-02-02T11:05:22;91693.34;;;9.38;45.10
20628;BME280;10473;42.734;24.258;2023-02-02T11:08:16;91694.84;;;9.76;44.39
20628;BME280;10473;42.734;24.258;2023-02-02T11:10:46;91688.84;;;10.26;42.24
20628;BME280;10473;42.734;24.258;2023-02-02T11:13:26;91683.03;;;10.57;41.04
20628;BME280;10473;42.734;24.258;2023-02-02T11:16:19;91689.81;;;10.54;41.81
20628;BME280;10473;42.734;24.258;2023-02-02T11:18:47;91688.94;;;10.40;41.83
20628;BME280;10473;42.734;24.258;2023-02-02T11:21:21;91685.44;;;10.83;40.67
20628;BME280;10473;42.734;24.258;2023-02-02T11:23:58;91687.00;;;10.91;40.69
20628;BME280;10473;42.734;24.258;2023-02-02T11:26:41;91682.03;;;10.25;40.97
20628;BME280;10473;42.734;24.258;2023-02-02T11:29:13;91676.94;;;9.59;42.65
20628;BME280;10473;42.734;24.258;2023-02-02T11:31:43;91671.41;;;9.38;43.45
20628;BME280;10473;42.734;24.258;2023-02-02T11:34:19;91668.81;;;8.75;44.86
20628;BME280;10473;42.734;24.258;2023-02-02T11:37:09;91681.38;;;8.26;45.73
20628;BME280;10473;42.734;24.258;2023-02-02T11:39:38;91666.06;;;7.87;46.59
20628;BME280;10473;42.734;24.258;2023-02-02T11:42:12;91664.75;;;7.77;46.83
20628;BME280;10473;42.734;24.258;2023-02-02T11:44:44;91662.19;;;7.58;48.49
20628;BME280;10473;42.734;24.258;2023-02-02T11:47:19;91669.75;;;7.60;48.78
20628;BME280;10473;42.734;24.258;2023-02-02T11:49:48;91664.03;;;7.32;48.80
20628;BME280;10473;42.734;24.258;2023-02-02T11:52:19;91653.09;;;7.11;49.34
20628;BME280;10473;42.734;24.258;2023-02-02T11:54:49;91628.47;;;6.62;51.05
20628;BME280;10473;42.734;24.258;2023-02-02T11:57:21;91647.72;;;6.66;50.83
20628;BME280;10473;42.734;24.258;2023-02-02T11:59:50;91631.81;;;6.59;51.11
20628;BME280;10473;42.734;24.258;2023-02-02T12:02:23;91637.75;;;6.56;51.72
20628;BME280;10473;42.734;24.258;2023-02-02T12:04:52;91651.31;;;6.96;52.10
20628;BME280;10473;42.734;24.258;2023-02-02T12:07:26;91645.00;;;7.42;51.86
20628;BME280;10473;42.734;24.258;2023-02-02T12:09:58;91636.03;;;8.47;49.58
20628;BME280;10473;42.734;24.258;2023-02-02T12:12:37;91645.31;;;8.96;45.93
20628;BME280;10473;42.734;24.258;2023-02-02T12:15:18;91638.94;;;9.01;46.06
20628;BME280;10473;42.734;24.258;2023-02-02T12:17:52;91616.03;;;8.79;44.92
20628;BME280;10473;42.734;24.258;2023-02-02T12:20:31;91634.63;;;8.86;44.82
20628;BME280;10473;42.734;24.258;2023-02-02T12:23:30;91617.63;;;8.54;47.04
20628;BME280;10473;42.734;24.258;2023-02-02T12:26:14;91612.41;;;8.28;47.02
20628;BME280;10473;42.734;24.258;2023-02-02T12:28:58;91619.50;;;8.24;47.56
20628;BME280;10473;42.734;24.258;2023-02-02T12:31:39;91604.03;;;8.22;48.87
20628;BME280;10473;42.734;24.258;2023-02-02T12:34:18;91601.91;;;9.34;45.76
20628;BME280;10473;42.734;24.258;2023-02-02T12:36:54;91603.81;;;9.40;43.22
20628;BME280;10473;42.734;24.258;2023-02-02T12:39:32;91586.88;;;9.41;44.85
20628;BME280;10473;42.734;24.258;2023-02-02T12:42:16;91606.59;;;10.01;43.57
20628;BME280;10473;42.734;24.258;2023-02-02T12:45:01;91610.28;;;9.90;42.94
20628;BME280;10473;42.734;24.258;2023-02-02T12:47:39;91597.31;;;9.74;41.62
20628;BME280;10473;42.734;24.258;2023-02-02T12:50:21;91590.44;;;9.63;42.28
20628;BME280;10473;42.734;24.258;2023-02-02T12:53:23;91598.16;;;9.38;43.39
20628;BME280;10473;42.734;24.258;2023-02-02T12:56:00;91590.19;;;8.95;43.91
20628;BME280;10473;42.734;24.258;2023-02-02T12:58:37;91590.19;;;8.62;43.83
20628;BME280;10473;42.734;24.258;2023-02-02T13:01:32;91575.69;;;8.19;45.04
20628;BME280;10473;42.734;24.258;2023-02-02T13:04:22;91581.59;;;8.09;45.70
20628;BME280;10473;42.734;24.258;2023-02-02T13:07:22;91547.56;;;7.49;45.15
20628;BME280;10473;42.734;24.258;2023-02-02T13:10:00;91570.22;;;7.53;44.82
20628;BME280;10473;42.734;24.258;2023-02-02T13:12:33;91571.19;;;7.42;45.36
20628;BME280;10473;42.734;24.258;2023-02-02T13:15:05;91566.28;;;7.40;46.24
20628;BME280;10473;42.734;24.258;2023-02-02T13:17:39;91571.59;;;7.44;46.60
20628;BME280;10473;42.734;24.258;2023-02-02T13:20:17;91557.41;;;7.52;46.07
20628;BME280;10473;42.734;24.258;2023-02-02T13:22:49;91540.06;;;7.51;46.32
20628;BME280;10473;42.734;24.258;2023-02-02T13:25:22;91550.78;;;7.61;45.64